createdAt,value
2023-03-12T00:01:51.987Z,67.62
2023-03-12T00:04:24.263Z,67.73
2023-03-12T00:06:56.773Z,67.65
2023-03-12T00:09:29.377Z,67.60
2023-03-12T00:12:01.647Z,67.64
2023-03-12T00:14:34.136Z,67.80
2023-03-12T00:17:06.469Z,67.80
2023-03-12T00:19:38.562Z,67.74
2023-03-12T00:22:10.897Z,67.68
2023-03-12T00:24:43.288Z,67.85
2023-03-12T00:27:15.550Z,67.86
2023-03-12T00:29:47.906Z,67.97
2023-03-12T00:32:20.791Z,67.98
2023-03-12T00:34:56.516Z,67.86
2023-03-12T00:37:28.800Z,67.89
2023-03-12T00:40:02.398Z,67.97
2023-03-12T00:42:34.914Z,67.95
2023-03-12T00:45:08.878Z,67.90
2023-03-12T00:47:41.291Z,67.77
2023-03-12T00:50:13.956Z,67.95
2023-03-12T00:52:46.622Z,67.91
2023-03-12T00:55:19.181Z,67.87
2023-03-12T00:57:51.726Z,67.97
2023-03-12T01:00:26.118Z,67.98
2023-03-12T01:02:59.404Z,67.83
2023-03-12T01:05:34.092Z,67.99
2023-03-12T01:08:08.173Z,67.87
2023-03-12T01:10:43.945Z,68.03
2023-03-12T01:13:16.218Z,68.01
2023-03-12T01:15:48.498Z,67.92
2023-03-12T01:18:21.038Z,68.12
2023-03-12T01:20:53.590Z,68.01
2023-03-12T01:23:25.947Z,68.01
2023-03-12T01:25:59.503Z,68.02
2023-03-12T01:28:31.808Z,68.06
2023-03-12T01:31:11.329Z,68.04
2023-03-12T01:33:43.829Z,68.16
2023-03-12T01:36:21.717Z,68.13
2023-03-12T01:38:55.423Z,68.20
2023-03-12T01:41:30.167Z,68.12
2023-03-12T01:44:04.061Z,67.94
2023-03-12T01:46:39.089Z,68.00
2023-03-12T01:49:21.040Z,68.15
2023-03-12T01:51:59.862Z,68.07
2023-03-12T01:54:36.779Z,68.00
2023-03-12T01:57:14.634Z,68.11
2023-03-12T01:59:49.982Z,68.18
2023-03-12T02:02:27.062Z,68.06
2023-03-12T02:05:08.479Z,68.17
2023-03-12T02:07:40.869Z,68.23
2023-03-12T02:10:14.436Z,68.14
2023-03-12T02:12:46.911Z,68.08
2023-03-12T02:15:19.933Z,68.29
2023-03-12T02:17:54.274Z,68.38
2023-03-12T02:20:35.756Z,68.14
2023-03-12T02:23:11.471Z,68.34
2023-03-12T02:25:47.653Z,68.24
2023-03-12T02:28:23.754Z,68.29
2023-03-12T02:31:01.595Z,68.24
2023-03-12T02:33:33.961Z,68.08
2023-03-12T02:36:09.408Z,68.10
2023-03-12T02:38:46.879Z,68.21
2023-03-12T02:41:23.650Z,68.07
2023-03-12T02:44:04.077Z,68.21
2023-03-12T02:46:40.929Z,68.12
2023-03-12T02:49:13.928Z,68.19
2023-03-12T02:51:47.436Z,68.23
2023-03-12T02:54:21.340Z,68.25
2023-03-12T02:56:55.233Z,68.24
2023-03-12T02:59:28.546Z,68.43
2023-03-12T03:02:04.537Z,68.21
2023-03-12T03:04:36.896Z,68.26
2023-03-12T03:07:09.512Z,68.35
2023-03-12T03:09:41.858Z,68.22
2023-03-12T03:12:14.445Z,68.42
2023-03-12T03:14:47.247Z,68.41
2023-03-12T03:17:19.546Z,68.15
2023-03-12T03:19:52.009Z,68.27
2023-03-12T03:22:24.760Z,68.36
2023-03-12T03:24:57.367Z,68.47
2023-03-12T03:27:29.759Z,68.37
2023-03-12T03:30:02.436Z,68.46
2023-03-12T03:32:36.904Z,68.35
2023-03-12T03:35:11.930Z,68.33
2023-03-12T03:37:44.349Z,68.52
2023-03-12T03:40:16.886Z,68.31
2023-03-12T03:42:49.340Z,68.44
2023-03-12T03:45:21.829Z,68.25
2023-03-12T03:47:54.687Z,68.47
2023-03-12T03:50:27.216Z,68.44
2023-03-12T03:53:00.118Z,68.28
2023-03-12T03:55:32.607Z,68.37
2023-03-12T03:58:04.943Z,68.24
2023-03-12T04:00:37.480Z,68.36
2023-03-12T04:03:09.929Z,68.40
2023-03-12T04:05:45.464Z,68.52
2023-03-12T04:08:18.245Z,68.35
2023-03-12T04:10:50.709Z,68.33
2023-03-12T04:13:23.388Z,68.28
2023-03-12T04:15:56.567Z,68.50
2023-03-12T04:18:29.232Z,68.33
2023-03-12T04:21:01.564Z,68.53
2023-03-12T04:23:34.349Z,68.38
2023-03-12T04:26:08.291Z,68.64
2023-03-12T04:28:41.043Z,68.47
2023-03-12T04:31:14.960Z,68.62
2023-03-12T04:33:54.852Z,68.40
2023-03-12T04:36:28.849Z,68.39
2023-03-12T04:39:01.733Z,68.36
2023-03-12T04:41:37.953Z,68.19
2023-03-12T04:44:14.438Z,68.27
2023-03-12T04:46:46.884Z,68.17
2023-03-12T04:49:22.181Z,68.22
2023-03-12T04:51:54.851Z,68.21
2023-03-12T04:54:27.260Z,68.27
2023-03-12T04:56:59.653Z,68.37
2023-03-12T04:59:32.282Z,68.31
2023-03-12T05:02:04.757Z,68.35
2023-03-12T05:04:37.454Z,68.14
2023-03-12T05:07:09.900Z,68.44
2023-03-12T05:09:44.210Z,68.47
2023-03-12T05:12:16.968Z,68.38
2023-03-12T05:14:49.335Z,68.15
2023-03-12T05:17:21.743Z,68.06
2023-03-12T05:19:54.367Z,68.26
2023-03-12T05:22:26.864Z,68.30
2023-03-12T05:24:59.914Z,68.23
2023-03-12T05:27:32.403Z,68.21
2023-03-12T05:30:05.873Z,68.22
2023-03-12T05:32:38.376Z,68.18
2023-03-12T05:35:13.423Z,68.04
2023-03-12T05:37:45.943Z,68.11
2023-03-12T05:40:18.768Z,68.13
2023-03-12T05:42:51.019Z,68.36
2023-03-12T05:45:23.899Z,68.39
2023-03-12T05:47:58.748Z,68.14
2023-03-12T05:50:32.754Z,68.20
2023-03-12T05:53:05.046Z,68.30
2023-03-12T05:55:39.441Z,68.08
2023-03-12T05:58:12.376Z,68.13
2023-03-12T06:00:45.174Z,67.95
2023-03-12T06:03:18.572Z,68.00
2023-03-12T06:05:55.155Z,68.07
2023-03-12T06:08:28.459Z,68.08
2023-03-12T06:11:00.774Z,68.05
2023-03-12T06:13:34.152Z,68.13
2023-03-12T06:16:10.334Z,67.98
2023-03-12T06:18:43.044Z,68.03
2023-03-12T06:21:18.613Z,68.11
2023-03-12T06:23:52.141Z,68.15
2023-03-12T06:26:29.800Z,67.97
2023-03-12T06:29:02.107Z,68.10
2023-03-12T06:31:37.257Z,68.03
2023-03-12T06:34:11.377Z,68.06
2023-03-12T06:36:43.701Z,67.98
2023-03-12T06:39:16.003Z,68.02
2023-03-12T06:41:48.447Z,68.13
2023-03-12T06:44:20.829Z,67.82
2023-03-12T06:46:53.879Z,68.08
2023-03-12T06:49:27.505Z,67.71
2023-03-12T06:51:59.820Z,67.69
2023-03-12T06:54:32.216Z,68.24
2023-03-12T06:57:04.683Z,67.95
2023-03-12T06:59:36.972Z,67.81
2023-03-12T07:02:11.444Z,67.80
2023-03-12T07:04:43.790Z,68.00
2023-03-12T07:07:17.201Z,68.03
2023-03-12T07:09:49.512Z,68.06
2023-03-12T07:12:21.837Z,67.95
2023-03-12T07:14:54.201Z,67.92
2023-03-12T07:17:27.422Z,67.84
2023-03-12T07:20:01.172Z,67.93
2023-03-12T07:22:33.579Z,67.38
2023-03-12T07:25:06.437Z,67.72
2023-03-12T07:27:38.727Z,67.60
2023-03-12T07:30:14.877Z,67.90
2023-03-12T07:32:47.167Z,67.82
2023-03-12T07:35:19.795Z,67.76
2023-03-12T07:37:52.157Z,67.62
2023-03-12T07:40:24.712Z,67.61
2023-03-12T07:42:57.699Z,67.81
2023-03-12T07:45:30.318Z,67.78
2023-03-12T07:48:02.772Z,67.73
2023-03-12T07:50:35.443Z,67.26
2023-03-12T07:53:08.349Z,67.18
2023-03-12T07:55:40.723Z,66.94
2023-03-12T07:58:14.009Z,67.06
2023-03-12T08:00:46.672Z,67.17
2023-03-12T08:03:19.357Z,67.04
2023-03-12T08:06:01.517Z,66.68
2023-03-12T08:08:34.417Z,66.86
2023-03-12T08:11:07.544Z,66.77
2023-03-12T08:13:39.837Z,67.10
2023-03-12T08:16:12.693Z,66.79
2023-03-12T08:18:45.624Z,66.36
2023-03-12T08:21:18.014Z,66.80
2023-03-12T08:23:50.326Z,66.74
2023-03-12T08:26:22.599Z,66.86
2023-03-12T08:28:55.038Z,66.94
2023-03-12T08:31:27.362Z,66.74
2023-03-12T08:34:00.168Z,67.11
2023-03-12T08:36:32.829Z,67.04
2023-03-12T08:39:05.143Z,66.86
2023-03-12T08:41:37.394Z,66.83
2023-03-12T08:44:10.531Z,65.98
2023-03-12T08:46:42.722Z,66.98
2023-03-12T08:49:15.171Z,67.22
2023-03-12T08:51:47.540Z,66.73
2023-03-12T08:54:20.253Z,66.62
2023-03-12T08:56:54.434Z,66.33
2023-03-12T08:59:26.982Z,66.04
2023-03-12T09:01:59.355Z,66.58
2023-03-12T09:04:31.925Z,66.35
2023-03-12T09:07:05.101Z,66.13
2023-03-12T09:09:37.468Z,66.52
2023-03-12T09:12:10.527Z,65.80
2023-03-12T09:15:02.426Z,66.13
2023-03-12T09:17:35.471Z,65.74
2023-03-12T09:20:14.082Z,66.71
2023-03-12T09:22:46.759Z,65.62
2023-03-12T09:25:19.625Z,65.87
2023-03-12T09:27:52.008Z,65.71
2023-03-12T09:30:26.493Z,66.26
2023-03-12T09:32:59.006Z,66.11
2023-03-12T09:35:31.752Z,65.63
2023-03-12T09:38:04.652Z,65.62
2023-03-12T09:40:40.069Z,65.38
2023-03-12T09:43:19.814Z,65.27
2023-03-12T09:45:53.032Z,65.49
2023-03-12T09:48:32.394Z,65.35
2023-03-12T09:51:09.454Z,65.75
2023-03-12T09:53:47.213Z,65.37
2023-03-12T09:56:22.241Z,64.90
2023-03-12T09:58:55.861Z,65.36
2023-03-12T10:01:38.773Z,65.71
2023-03-12T10:04:29.358Z,64.94
2023-03-12T10:07:11.452Z,64.94
2023-03-12T10:10:27.931Z,65.47
2023-03-12T10:13:12.877Z,64.61
2023-03-12T10:15:55.927Z,65.09
2023-03-12T10:18:40.047Z,64.46
2023-03-12T10:21:25.660Z,64.98
2023-03-12T10:24:05.282Z,64.35
2023-03-12T10:26:41.011Z,64.50
2023-03-12T10:29:18.543Z,64.98
2023-03-12T10:32:00.521Z,64.35
2023-03-12T10:34:40.376Z,63.30
2023-03-12T10:37:21.294Z,64.21
2023-03-12T10:39:55.562Z,64.41
2023-03-12T10:42:29.643Z,63.97
2023-03-12T10:45:14.638Z,64.03
2023-03-12T10:47:51.155Z,63.98
2023-03-12T10:50:25.786Z,63.35
2023-03-12T10:53:15.157Z,64.04
2023-03-12T10:56:01.388Z,64.26
2023-03-12T10:58:39.226Z,63.34
2023-03-12T11:01:22.969Z,63.01
2023-03-12T11:04:10.454Z,63.40
2023-03-12T11:06:42.904Z,63.66
2023-03-12T11:09:20.843Z,62.73
2023-03-12T11:11:53.801Z,63.01
2023-03-12T11:14:28.293Z,62.98
2023-03-12T11:17:24.776Z,63.08
2023-03-12T11:19:57.394Z,63.31
2023-03-12T11:22:35.308Z,62.63
2023-03-12T11:25:21.176Z,62.71
2023-03-12T11:27:56.305Z,62.16
2023-03-12T11:30:37.829Z,62.59
2023-03-12T11:33:12.584Z,62.91
2023-03-12T11:35:52.278Z,62.47
2023-03-12T11:38:32.262Z,62.29
2023-03-12T11:41:19.644Z,61.96
2023-03-12T11:44:04.183Z,61.71
2023-03-12T11:46:49.585Z,62.44
2023-03-12T11:49:27.874Z,62.40
2023-03-12T11:52:06.185Z,61.68
2023-03-12T11:55:02.641Z,62.17
2023-03-12T11:57:42.395Z,61.79
2023-03-12T12:00:20.576Z,61.77
2023-03-12T12:03:17.784Z,61.28
2023-03-12T12:06:00.881Z,61.16
2023-03-12T12:08:50.481Z,61.10
2023-03-12T12:11:34.191Z,61.17
2023-03-12T12:14:18.130Z,61.45
2023-03-12T12:17:06.743Z,61.19
2023-03-12T12:19:53.779Z,60.71
2023-03-12T12:22:37.455Z,60.88
2023-03-12T12:25:39.593Z,61.40
2023-03-12T12:28:55.873Z,60.49
2023-03-12T12:31:41.751Z,60.77
2023-03-12T12:34:43.530Z,59.84
2023-03-12T12:37:30.394Z,60.14
2023-03-12T12:40:14.016Z,60.12
2023-03-12T12:42:53.721Z,60.41
2023-03-12T12:45:30.985Z,59.97
2023-03-12T12:48:08.431Z,59.62
2023-03-12T12:50:42.998Z,60.54
2023-03-12T12:53:25.205Z,59.91
2023-03-12T12:56:07.429Z,60.14
2023-03-12T12:59:15.151Z,60.27
2023-03-12T13:01:47.612Z,59.95
2023-03-12T13:04:25.837Z,59.33
2023-03-12T13:07:05.301Z,59.77
2023-03-12T13:09:44.489Z,60.04
2023-03-12T13:12:27.326Z,59.01
2023-03-12T13:15:01.637Z,59.41
2023-03-12T13:17:36.979Z,60.01
2023-03-12T13:20:20.885Z,59.57
2023-03-12T13:23:26.252Z,59.43
2023-03-12T13:26:04.973Z,59.74
2023-03-12T13:29:11.234Z,58.92
2023-03-12T13:31:45.706Z,57.88
2023-03-12T13:34:46.322Z,58.91
2023-03-12T13:37:59.378Z,59.36
2023-03-12T13:40:55.656Z,58.82
2023-03-12T13:43:51.103Z,59.13
2023-03-12T13:46:45.457Z,58.93
2023-03-12T13:49:20.067Z,58.60
2023-03-12T13:52:02.601Z,58.87
2023-03-12T13:54:42.818Z,58.38
2023-03-12T13:57:26.192Z,58.43
2023-03-12T13:59:59.866Z,59.00
2023-03-12T14:02:35.619Z,58.73
2023-03-12T14:05:11.652Z,58.36
2023-03-12T14:08:10.977Z,58.78
2023-03-12T14:11:04.658Z,58.86
2023-03-12T14:14:04.427Z,58.90
2023-03-12T14:16:43.191Z,58.63
2023-03-12T14:19:19.744Z,58.11
2023-03-12T14:21:54.164Z,58.07
2023-03-12T14:24:29.459Z,57.96
2023-03-12T14:27:05.864Z,57.65
2023-03-12T14:29:43.613Z,57.52
2023-03-12T14:32:20.889Z,57.86
2023-03-12T14:34:59.864Z,57.29
2023-03-12T14:37:38.001Z,58.09
2023-03-12T14:40:23.100Z,58.13
2023-03-12T14:42:56.784Z,57.96
2023-03-12T14:45:30.146Z,58.15
2023-03-12T14:48:02.535Z,58.21
2023-03-12T14:50:40.882Z,57.86
2023-03-12T14:53:21.128Z,57.61
2023-03-12T14:56:04.443Z,57.21
2023-03-12T14:58:43.481Z,57.41
2023-03-12T15:01:20.084Z,57.71
2023-03-12T15:03:56.505Z,57.66
2023-03-12T15:06:32.121Z,57.64
2023-03-12T15:09:07.663Z,57.67
2023-03-12T15:11:40.573Z,57.31
2023-03-12T15:14:17.178Z,57.25
2023-03-12T15:16:50.166Z,57.04
2023-03-12T15:19:28.877Z,57.28
2023-03-12T15:22:01.732Z,57.15
2023-03-12T15:24:41.162Z,57.19
2023-03-12T15:27:31.507Z,57.17
2023-03-12T15:30:17.530Z,57.17
2023-03-12T15:33:07.092Z,57.44
2023-03-12T15:35:42.344Z,57.19
2023-03-12T15:38:20.657Z,57.67
2023-03-12T15:40:56.221Z,57.18
2023-03-12T15:43:28.686Z,57.41
2023-03-12T15:46:03.318Z,57.01
2023-03-12T15:48:39.502Z,57.38
2023-03-12T15:51:28.609Z,57.44
2023-03-12T15:54:23.345Z,57.61
2023-03-12T15:56:55.964Z,57.53
2023-03-12T15:59:29.606Z,57.22
2023-03-12T16:02:02.009Z,56.97
2023-03-12T16:04:34.296Z,57.50
2023-03-12T16:07:11.752Z,57.46
2023-03-12T16:09:44.688Z,57.30
2023-03-12T16:12:16.994Z,57.61
2023-03-12T16:14:50.720Z,57.32
2023-03-12T16:17:24.536Z,57.53
2023-03-12T16:19:56.858Z,57.42
2023-03-12T16:22:29.249Z,57.42
2023-03-12T16:25:01.517Z,57.44
2023-03-12T16:27:39.205Z,57.38
2023-03-12T16:30:17.868Z,57.63
2023-03-12T16:32:50.229Z,57.58
2023-03-12T16:35:23.677Z,57.71
2023-03-12T16:37:56.946Z,57.51
2023-03-12T16:40:33.879Z,57.56
2023-03-12T16:43:08.724Z,57.56
2023-03-12T16:45:46.991Z,57.90
2023-03-12T16:48:21.900Z,57.71
2023-03-12T16:50:56.764Z,57.49
2023-03-12T16:53:29.470Z,57.84
2023-03-12T16:56:02.941Z,57.98
2023-03-12T16:58:35.265Z,57.69
2023-03-12T17:01:12.648Z,57.90
2023-03-12T17:03:49.568Z,57.69
2023-03-12T17:06:24.487Z,57.80
2023-03-12T17:08:57.732Z,57.72
2023-03-12T17:11:33.816Z,57.88
2023-03-12T17:14:19.163Z,57.84
2023-03-12T17:16:55.331Z,57.75
2023-03-12T17:19:31.338Z,57.67
2023-03-12T17:22:09.871Z,57.62
2023-03-12T17:24:45.106Z,57.59
2023-03-12T17:27:18.832Z,57.65
2023-03-12T17:29:51.815Z,57.51
2023-03-12T17:32:26.185Z,57.68
2023-03-12T17:35:05.181Z,57.82
2023-03-12T17:37:42.353Z,57.80
2023-03-12T17:40:17.494Z,58.05
2023-03-12T17:42:58.394Z,57.84
2023-03-12T17:45:31.932Z,57.59
2023-03-12T17:48:05.148Z,57.96
2023-03-12T17:50:39.140Z,57.82
2023-03-12T17:53:12.230Z,57.76
2023-03-12T17:55:45.690Z,57.60
2023-03-12T17:58:17.969Z,57.84
2023-03-12T18:00:50.390Z,57.75
2023-03-12T18:03:22.842Z,57.75
2023-03-12T18:05:55.264Z,57.97
2023-03-12T18:08:27.706Z,57.91
2023-03-12T18:11:01.723Z,57.95
2023-03-12T18:13:34.149Z,58.04
2023-03-12T18:16:07.059Z,57.55
2023-03-12T18:18:39.507Z,57.99
2023-03-12T18:21:11.889Z,58.02
2023-03-12T18:23:46.114Z,57.92
2023-03-12T18:26:18.550Z,57.93
2023-03-12T18:28:51.360Z,57.77
2023-03-12T18:31:23.845Z,58.05
2023-03-12T18:33:56.340Z,58.10
2023-03-12T18:36:28.870Z,57.99
2023-03-12T18:39:04.632Z,57.99
2023-03-12T18:41:37.169Z,57.87
2023-03-12T18:44:09.856Z,58.15
2023-03-12T18:46:42.409Z,58.09
2023-03-12T18:49:14.806Z,57.98
2023-03-12T18:51:47.362Z,58.18
2023-03-12T18:54:19.727Z,58.02
2023-03-12T18:56:52.101Z,58.36
2023-03-12T18:59:24.709Z,58.35
2023-03-12T19:01:57.103Z,58.19
2023-03-12T19:04:29.530Z,58.32
2023-03-12T19:07:01.989Z,58.33
2023-03-12T19:09:34.298Z,57.92
2023-03-12T19:12:07.208Z,58.26
2023-03-12T19:14:39.559Z,58.49
2023-03-12T19:17:11.955Z,58.30
2023-03-12T19:19:44.317Z,58.40
2023-03-12T19:22:16.796Z,58.31
2023-03-12T19:24:49.176Z,58.36
2023-03-12T19:27:21.596Z,58.30
2023-03-12T19:29:54.136Z,58.35
2023-03-12T19:32:33.281Z,58.22
2023-03-12T19:35:15.917Z,58.10
2023-03-12T19:37:48.286Z,58.36
2023-03-12T19:40:20.845Z,58.29
2023-03-12T19:42:53.275Z,58.31
2023-03-12T19:45:25.692Z,58.40
2023-03-12T19:47:58.252Z,58.38
2023-03-12T19:50:30.749Z,58.44
2023-03-12T19:53:03.176Z,58.47
2023-03-12T19:55:35.622Z,58.69
2023-03-12T19:58:08.456Z,58.28
2023-03-12T20:00:41.382Z,58.62
2023-03-12T20:03:13.884Z,58.41
2023-03-12T20:05:47.494Z,58.53
2023-03-12T20:08:21.166Z,58.83
2023-03-12T20:10:53.392Z,58.28
2023-03-12T20:13:25.733Z,58.74
2023-03-12T20:15:58.071Z,58.32
2023-03-12T20:18:30.583Z,58.54
2023-03-12T20:21:02.883Z,58.87
2023-03-12T20:23:35.411Z,58.68
2023-03-12T20:26:08.219Z,58.68
2023-03-12T20:28:40.476Z,58.81
2023-03-12T20:31:14.500Z,58.85
2023-03-12T20:33:46.791Z,58.53
2023-03-12T20:36:19.150Z,58.62
2023-03-12T20:38:52.045Z,58.93
2023-03-12T20:41:24.839Z,58.97
2023-03-12T20:43:58.854Z,58.66
2023-03-12T20:46:31.163Z,58.84
2023-03-12T20:49:03.525Z,58.79
2023-03-12T20:51:35.951Z,58.99
2023-03-12T20:54:09.879Z,58.69
2023-03-12T20:56:43.815Z,58.77
2023-03-12T20:59:16.207Z,58.79
2023-03-12T21:01:48.636Z,59.00
2023-03-12T21:04:20.890Z,58.82
2023-03-12T21:06:53.223Z,58.70
2023-03-12T21:09:25.649Z,58.79
2023-03-12T21:11:57.860Z,58.86
2023-03-12T21:14:30.425Z,59.00
2023-03-12T21:17:02.725Z,58.92
2023-03-12T21:19:34.965Z,59.07
2023-03-12T21:22:07.246Z,58.82
2023-03-12T21:24:39.718Z,58.95
2023-03-12T21:27:13.081Z,58.77
2023-03-12T21:29:45.463Z,58.91
2023-03-12T21:32:17.739Z,59.00
2023-03-12T21:34:50.220Z,58.96
2023-03-12T21:37:22.613Z,59.03
2023-03-12T21:39:57.040Z,58.75
2023-03-12T21:42:30.597Z,59.08
2023-03-12T21:45:03.534Z,58.92
2023-03-12T21:47:38.674Z,59.11
2023-03-12T21:50:10.433Z,58.94
2023-03-12T21:52:47.856Z,59.23
2023-03-12T21:55:20.365Z,58.96
2023-03-12T21:57:52.713Z,59.08
2023-03-12T22:00:25.538Z,59.41
2023-03-12T22:02:57.861Z,59.23
2023-03-12T22:05:30.132Z,59.11
2023-03-12T22:08:02.507Z,59.17
2023-03-12T22:10:34.814Z,59.05
2023-03-12T22:13:07.293Z,59.17
2023-03-12T22:15:39.707Z,59.28
2023-03-12T22:18:12.155Z,59.39
2023-03-12T22:20:50.965Z,59.32
2023-03-12T22:23:23.897Z,59.46
2023-03-12T22:25:56.559Z,59.33
2023-03-12T22:28:28.871Z,59.03
2023-03-12T22:31:02.702Z,59.32
2023-03-12T22:33:35.900Z,59.26
2023-03-12T22:36:11.186Z,59.40
2023-03-12T22:38:44.009Z,59.52
2023-03-12T22:41:18.997Z,59.36
2023-03-12T22:43:52.764Z,59.58
2023-03-12T22:46:27.584Z,59.49
2023-03-12T22:49:02.336Z,59.63
2023-03-12T22:51:35.310Z,59.55
2023-03-12T22:54:07.829Z,59.58
2023-03-12T22:56:40.444Z,59.81
2023-03-12T22:59:13.268Z,59.38
2023-03-12T23:01:45.553Z,59.44
2023-03-12T23:04:17.901Z,59.74
2023-03-12T23:06:50.210Z,59.47
2023-03-12T23:09:22.625Z,59.59
2023-03-12T23:11:54.942Z,59.52
2023-03-12T23:14:27.310Z,59.65
2023-03-12T23:17:00.220Z,59.64
2023-03-12T23:19:36.475Z,59.62
2023-03-12T23:22:09.728Z,60.01
2023-03-12T23:24:42.127Z,59.72
2023-03-12T23:27:14.446Z,59.76
2023-03-12T23:29:46.799Z,59.73
2023-03-12T23:32:19.144Z,59.87
2023-03-12T23:34:51.888Z,59.66
2023-03-12T23:37:24.248Z,60.00
2023-03-12T23:39:56.575Z,59.83
2023-03-12T23:42:29.302Z,59.83
2023-03-12T23:45:01.602Z,59.77
2023-03-12T23:47:33.931Z,59.82
2023-03-12T23:50:07.045Z,60.01
2023-03-12T23:52:39.222Z,59.88
2023-03-12T23:55:13.783Z,59.97
2023-03-12T23:57:46.082Z,60.02
